createdAt,value
2017-07-23T00:00:40.118Z,1005.9
2017-07-23T00:01:42.229Z,1005.9
2017-07-23T00:02:44.324Z,1005.9
2017-07-23T00:03:46.766Z,1005.9
2017-07-23T00:04:48.874Z,1005.8
2017-07-23T00:05:50.976Z,1005.8
2017-07-23T00:06:53.088Z,1005.9
2017-07-23T00:07:55.858Z,1005.8
2017-07-23T00:08:58.292Z,1005.8
2017-07-23T00:10:00.383Z,1005.8
2017-07-23T00:11:02.484Z,1005.8
2017-07-23T00:12:04.579Z,1005.8
2017-07-23T00:13:07.012Z,1005.8
2017-07-23T00:14:09.123Z,1005.7
2017-07-23T00:15:11.213Z,1005.7
2017-07-23T00:16:13.647Z,1005.7
2017-07-23T00:17:16.094Z,1005.8
2017-07-23T00:18:18.193Z,1005.7
2017-07-23T00:19:20.294Z,1005.7
2017-07-23T00:20:22.396Z,1005.8
2017-07-23T00:21:24.500Z,1005.7
2017-07-23T00:22:26.930Z,1005.7
2017-07-23T00:23:29.024Z,1005.7
2017-07-23T00:24:31.135Z,1005.7
2017-07-23T00:25:33.210Z,1005.7
2017-07-23T00:26:35.305Z,1005.7
2017-07-23T00:27:37.749Z,1005.7
2017-07-23T00:28:40.184Z,1005.6
2017-07-23T00:29:42.991Z,1005.6
2017-07-23T00:30:45.100Z,1005.6
2017-07-23T00:31:47.539Z,1005.6
2017-07-23T00:32:49.646Z,1005.6
2017-07-23T00:33:51.736Z,1005.6
2017-07-23T00:34:54.182Z,1005.5
2017-07-23T00:35:57.318Z,1005.4
2017-07-23T00:36:59.420Z,1005.4
2017-07-23T00:38:01.513Z,1005.3
2017-07-23T00:39:03.957Z,1005.3
2017-07-23T00:40:06.382Z,1005.3
2017-07-23T00:41:08.825Z,1005.3
2017-07-23T00:42:11.261Z,1005.2
2017-07-23T00:43:13.355Z,1005.2
2017-07-23T00:44:15.807Z,1005.2
2017-07-23T00:45:18.568Z,1005.1
2017-07-23T00:46:20.663Z,1005.2
2017-07-23T00:47:22.785Z,1005.2
2017-07-23T00:48:24.866Z,1005.2
2017-07-23T00:49:26.979Z,1005.1
2017-07-23T00:50:29.410Z,1005.1
2017-07-23T00:51:31.508Z,1005.1
2017-07-23T00:52:33.604Z,1005.1
2017-07-23T00:53:36.034Z,1005.1
2017-07-23T00:54:38.153Z,1005
2017-07-23T00:55:40.255Z,1005.1
2017-07-23T00:56:42.336Z,1005.1
2017-07-23T00:57:44.447Z,1005.1
2017-07-23T00:58:46.889Z,1005.1
2017-07-23T00:59:48.985Z,1005.1
2017-07-23T01:00:51.093Z,1005.1
2017-07-23T01:01:53.525Z,1005.2
2017-07-23T01:02:55.607Z,1005.1
2017-07-23T01:03:57.725Z,1005.2
2017-07-23T01:04:59.827Z,1005.2
2017-07-23T01:06:01.919Z,1005.2
2017-07-23T01:07:04.028Z,1005.2
2017-07-23T01:08:06.135Z,1005.2
2017-07-23T01:09:08.243Z,1005.2
2017-07-23T01:10:10.668Z,1005.2
2017-07-23T01:11:12.778Z,1005.1
2017-07-23T01:12:14.876Z,1005.2
2017-07-23T01:13:16.955Z,1005.2
2017-07-23T01:14:19.084Z,1005.1
2017-07-23T01:15:21.178Z,1005.1
2017-07-23T01:16:23.275Z,1005.1
2017-07-23T01:17:25.372Z,1005.2
2017-07-23T01:18:27.817Z,1005.2
2017-07-23T01:19:29.913Z,1005.1
2017-07-23T01:20:32.003Z,1005.2
2017-07-23T01:21:34.089Z,1005.1
2017-07-23T01:22:36.205Z,1005.1
2017-07-23T01:23:38.296Z,1005
2017-07-23T01:24:40.386Z,1005.1
2017-07-23T01:25:42.833Z,1005.1
2017-07-23T01:26:44.927Z,1005.1
2017-07-23T01:27:47.029Z,1005.1
2017-07-23T01:28:49.118Z,1005.1
2017-07-23T01:29:51.245Z,1005.1
2017-07-23T01:30:53.349Z,1005
2017-07-23T01:31:55.430Z,1005
2017-07-23T01:32:57.869Z,1005
2017-07-23T01:34:00.310Z,1005
2017-07-23T01:35:02.405Z,1005
2017-07-23T01:36:05.199Z,1005
2017-07-23T01:37:07.279Z,1004.9
2017-07-23T01:38:09.727Z,1005
2017-07-23T01:39:12.174Z,1004.9
2017-07-23T01:40:14.605Z,1004.9
2017-07-23T01:41:16.709Z,1004.9
2017-07-23T01:42:18.808Z,1004.8
2017-07-23T01:43:20.908Z,1004.7
2017-07-23T01:44:23.023Z,1004.8
2017-07-23T01:45:25.448Z,1004.8
2017-07-23T01:46:28.237Z,1004.8
2017-07-23T01:47:30.323Z,1004.8
2017-07-23T01:48:32.754Z,1004.8
2017-07-23T01:49:34.855Z,1004.9
2017-07-23T01:50:36.959Z,1004.9
2017-07-23T01:51:39.062Z,1004.9
2017-07-23T01:52:41.834Z,1004.9
2017-07-23T01:53:43.934Z,1004.9
2017-07-23T01:54:46.041Z,1004.8
2017-07-23T01:55:48.130Z,1004.8
2017-07-23T01:56:50.242Z,1004.8
2017-07-23T01:57:52.672Z,1004.9
2017-07-23T01:58:54.774Z,1004.9
2017-07-23T01:59:56.878Z,1004.9
2017-07-23T02:00:58.965Z,1004.9
2017-07-23T02:02:01.407Z,1004.9
2017-07-23T02:03:03.861Z,1004.9
2017-07-23T02:04:05.946Z,1004.9
2017-07-23T02:05:08.405Z,1004.9
2017-07-23T02:06:10.499Z,1004.9
2017-07-23T02:07:12.595Z,1004.9
2017-07-23T02:08:14.723Z,1004.9
2017-07-23T02:09:17.485Z,1004.9
2017-07-23T02:10:19.593Z,1004.9
2017-07-23T02:11:22.050Z,1004.8
2017-07-23T02:12:24.117Z,1004.8
2017-07-23T02:13:26.229Z,1004.8
2017-07-23T02:14:28.319Z,1004.8
2017-07-23T02:15:30.776Z,1004.7
2017-07-23T02:16:32.882Z,1004.7
2017-07-23T02:17:34.960Z,1004.7
2017-07-23T02:18:37.072Z,1004.7
2017-07-23T02:19:39.519Z,1004.7
2017-07-23T02:20:41.616Z,1004.6
2017-07-23T02:21:43.714Z,1004.5
2017-07-23T02:22:45.813Z,1004.5
2017-07-23T02:23:48.270Z,1004.5
2017-07-23T02:24:50.354Z,1004.5
2017-07-23T02:25:52.452Z,1004.5
2017-07-23T02:26:54.563Z,1004.5
2017-07-23T02:27:56.651Z,1004.5
2017-07-23T02:28:58.740Z,1004.5
2017-07-23T02:30:00.869Z,1004.5
2017-07-23T02:31:03.670Z,1004.4
2017-07-23T02:32:06.129Z,1004.4
2017-07-23T02:33:08.230Z,1004.5
2017-07-23T02:34:10.356Z,1004.5
2017-07-23T02:35:12.464Z,1004.5
2017-07-23T02:36:14.545Z,1004.5
2017-07-23T02:37:17.021Z,1004.5
2017-07-23T02:38:19.120Z,1004.5
2017-07-23T02:39:21.215Z,1004.5
2017-07-23T02:40:23.657Z,1004.5
2017-07-23T02:41:26.094Z,1004.5
2017-07-23T02:42:28.530Z,1004.5
2017-07-23T02:43:31.322Z,1004.5
2017-07-23T02:44:34.433Z,1004.5
2017-07-23T02:45:36.548Z,1004.5
2017-07-23T02:46:38.979Z,1004.5
2017-07-23T02:47:41.413Z,1004.5
2017-07-23T02:48:43.882Z,1004.5
2017-07-23T02:49:45.992Z,1004.4
2017-07-23T02:50:48.095Z,1004.4
2017-07-23T02:51:50.222Z,1004.4
2017-07-23T02:52:52.335Z,1004.4
2017-07-23T02:53:54.441Z,1004.5
2017-07-23T02:54:56.881Z,1004.5
2017-07-23T02:55:59.320Z,1004.5
2017-07-23T02:57:01.775Z,1004.5
2017-07-23T02:58:04.552Z,1004.5
2017-07-23T02:59:06.657Z,1004.4
2017-07-23T03:00:08.755Z,1004.4
2017-07-23T03:01:11.195Z,1004.3
2017-07-23T03:02:13.312Z,1004.4
2017-07-23T03:03:15.410Z,1004.3
2017-07-23T03:04:17.501Z,1004.4
2017-07-23T03:05:19.946Z,1004.4
2017-07-23T03:06:22.045Z,1004.4
2017-07-23T03:07:24.170Z,1004.4
2017-07-23T03:08:26.250Z,1004.4
2017-07-23T03:09:28.701Z,1004.4
2017-07-23T03:10:30.812Z,1004.4
2017-07-23T03:11:32.901Z,1004.3
2017-07-23T03:12:35.006Z,1004.3
2017-07-23T03:13:37.097Z,1004.3
2017-07-23T03:14:39.196Z,1004.3
2017-07-23T03:15:41.641Z,1004.3
2017-07-23T03:16:44.751Z,1004.2
2017-07-23T03:17:46.861Z,1004.2
2017-07-23T03:18:48.957Z,1004.2
2017-07-23T03:19:51.061Z,1004.2
2017-07-23T03:20:53.170Z,1004.2
2017-07-23T03:21:55.263Z,1004.2
2017-07-23T03:22:58.408Z,1004.2
2017-07-23T03:24:00.505Z,1004.2
2017-07-23T03:25:03.304Z,1004.2
2017-07-23T03:26:05.419Z,1004.2
2017-07-23T03:27:07.855Z,1004.2
2017-07-23T03:28:09.969Z,1004.2
2017-07-23T03:29:12.074Z,1004.2
2017-07-23T03:30:14.532Z,1004.2
2017-07-23T03:31:16.640Z,1004.2
2017-07-23T03:32:19.091Z,1004.2
2017-07-23T03:33:21.862Z,1004.2
2017-07-23T03:34:23.974Z,1004.2
2017-07-23T03:35:26.416Z,1004.2
2017-07-23T03:36:28.877Z,1004.2
2017-07-23T03:37:30.978Z,1004.2
2017-07-23T03:38:33.428Z,1004.1
2017-07-23T03:39:35.576Z,1004.1
2017-07-23T03:40:37.693Z,1004.1
2017-07-23T03:41:40.130Z,1004.1
2017-07-23T03:42:42.579Z,1004.1
2017-07-23T03:43:45.010Z,1004.1
2017-07-23T03:44:47.113Z,1004.1
2017-07-23T03:45:49.216Z,1004.1
2017-07-23T03:46:51.668Z,1004.1
2017-07-23T03:47:54.102Z,1004.1
2017-07-23T03:48:56.214Z,1004
2017-07-23T03:49:58.648Z,1004
2017-07-23T03:51:00.767Z,1004
2017-07-23T03:52:03.580Z,1004
2017-07-23T03:53:06.046Z,1004
2017-07-23T03:54:08.136Z,1004
2017-07-23T03:55:10.245Z,1004
2017-07-23T03:56:12.693Z,1004
2017-07-23T03:57:15.136Z,1004
2017-07-23T03:58:17.232Z,1004
2017-07-23T03:59:20.029Z,1004
2017-07-23T04:00:22.119Z,1004
2017-07-23T04:01:24.229Z,1004
2017-07-23T04:02:26.341Z,1004
2017-07-23T04:03:28.833Z,1004
2017-07-23T04:04:30.943Z,1003.9
2017-07-23T04:05:33.054Z,1003.8
2017-07-23T04:06:35.859Z,1003.9
2017-07-23T04:07:37.961Z,1003.9
2017-07-23T04:08:40.402Z,1003.9
2017-07-23T04:09:43.181Z,1003.9
2017-07-23T04:10:45.616Z,1003.9
2017-07-23T04:11:48.053Z,1003.8
2017-07-23T04:12:50.492Z,1003.9
2017-07-23T04:13:52.600Z,1003.8
2017-07-23T04:14:54.691Z,1003.9
2017-07-23T04:15:56.788Z,1003.9
2017-07-23T04:16:59.232Z,1003.8
2017-07-23T04:18:02.368Z,1003.9
2017-07-23T04:19:05.160Z,1003.9
2017-07-23T04:20:07.627Z,1003.9
2017-07-23T04:21:10.437Z,1003.8
2017-07-23T04:22:13.573Z,1003.9
2017-07-23T04:23:15.991Z,1003.8
2017-07-23T04:24:18.097Z,1003.8
2017-07-23T04:25:20.204Z,1003.9
2017-07-23T04:26:22.303Z,1003.9
2017-07-23T04:27:24.409Z,1003.8
2017-07-23T04:28:26.513Z,1003.8
2017-07-23T04:29:28.601Z,1003.8
2017-07-23T04:30:30.696Z,1003.9
2017-07-23T04:31:32.804Z,1003.9
2017-07-23T04:32:34.917Z,1003.9
2017-07-23T04:33:37.349Z,1003.8
2017-07-23T04:34:39.436Z,1003.8
2017-07-23T04:35:41.880Z,1003.8
2017-07-23T04:36:43.988Z,1003.8
2017-07-23T04:37:46.755Z,1003.8
2017-07-23T04:38:48.870Z,1003.7
2017-07-23T04:39:51.338Z,1003.8
2017-07-23T04:40:53.432Z,1003.7
2017-07-23T04:41:55.516Z,1003.8
2017-07-23T04:42:57.608Z,1003.7
2017-07-23T04:44:00.052Z,1003.7
2017-07-23T04:45:02.504Z,1003.7
2017-07-23T04:46:04.947Z,1003.7
2017-07-23T04:47:07.034Z,1003.7
2017-07-23T04:48:09.140Z,1003.7
2017-07-23T04:49:11.256Z,1003.7
2017-07-23T04:50:13.692Z,1003.7
2017-07-23T04:51:15.806Z,1003.7
2017-07-23T04:52:17.916Z,1003.7
2017-07-23T04:53:20.022Z,1003.7
2017-07-23T04:54:22.117Z,1003.6
2017-07-23T04:55:24.555Z,1003.6
2017-07-23T04:56:26.679Z,1003.6
2017-07-23T04:57:28.781Z,1003.6
2017-07-23T04:58:30.870Z,1003.6
2017-07-23T04:59:32.981Z,1003.6
2017-07-23T05:00:35.080Z,1003.5
2017-07-23T05:01:37.179Z,1003.5
2017-07-23T05:02:39.280Z,1003.5
2017-07-23T05:03:42.416Z,1003.5
2017-07-23T05:04:44.530Z,1003.5
2017-07-23T05:05:46.639Z,1003.5
2017-07-23T05:06:48.746Z,1003.6
2017-07-23T05:07:51.214Z,1003.5
2017-07-23T05:08:53.306Z,1003.6
2017-07-23T05:09:55.771Z,1003.6
2017-07-23T05:10:57.880Z,1003.5
2017-07-23T05:11:59.989Z,1003.5
2017-07-23T05:13:02.104Z,1003.6
2017-07-23T05:14:04.211Z,1003.6
2017-07-23T05:15:07.012Z,1003.6
2017-07-23T05:16:09.786Z,1003.7
2017-07-23T05:17:11.882Z,1003.7
2017-07-23T05:18:13.989Z,1003.8
2017-07-23T05:19:16.792Z,1003.8
2017-07-23T05:20:19.220Z,1003.9
2017-07-23T05:21:21.331Z,1004
2017-07-23T05:22:23.771Z,1004.1
2017-07-23T05:23:26.538Z,1004.2
2017-07-23T05:24:28.645Z,1004.1
2017-07-23T05:25:30.747Z,1004.2
2017-07-23T05:26:32.857Z,1004.2
2017-07-23T05:27:35.286Z,1004.1
2017-07-23T05:28:37.401Z,1004.2
2017-07-23T05:29:39.518Z,1004.2
2017-07-23T05:30:42.268Z,1004.1
2017-07-23T05:31:48.432Z,1004.1
2017-07-23T05:32:54.499Z,1004.1
2017-07-23T05:34:01.435Z,1004.1
2017-07-23T05:35:06.615Z,1004.1
2017-07-23T05:36:10.485Z,1004.1
2017-07-23T05:37:16.934Z,1004.1
2017-07-23T05:38:23.617Z,1004.1
2017-07-23T05:39:29.797Z,1004
2017-07-23T05:40:35.494Z,1004
2017-07-23T05:41:41.163Z,1004
2017-07-23T05:42:45.829Z,1004
2017-07-23T05:43:50.377Z,1004
2017-07-23T05:44:56.816Z,1004.1
2017-07-23T05:46:01.311Z,1004.1
2017-07-23T05:47:05.674Z,1004
2017-07-23T05:48:11.512Z,1004
2017-07-23T05:49:13.767Z,1004
2017-07-23T05:50:17.144Z,1004
2017-07-23T05:51:20.853Z,1004
2017-07-23T05:52:24.395Z,1004
2017-07-23T05:53:26.595Z,1004.1
2017-07-23T05:54:28.723Z,1004.1
2017-07-23T05:55:31.458Z,1004.1
2017-07-23T05:56:34.913Z,1004.1
2017-07-23T05:57:38.264Z,1004.1
2017-07-23T05:58:42.031Z,1004.1
2017-07-23T05:59:44.380Z,1004.2
2017-07-23T06:00:48.100Z,1004.3
2017-07-23T06:01:50.445Z,1004.3
2017-07-23T06:02:53.325Z,1004.3
2017-07-23T06:03:57.042Z,1004.3
2017-07-23T06:04:59.582Z,1004.3
2017-07-23T06:06:02.688Z,1004.3
2017-07-23T06:07:06.030Z,1004.3
2017-07-23T06:08:09.128Z,1004.4
2017-07-23T06:09:11.368Z,1004.4
2017-07-23T06:10:13.729Z,1004.4
2017-07-23T06:11:17.723Z,1004.4
2017-07-23T06:12:21.554Z,1004.3
2017-07-23T06:13:26.079Z,1004.4
2017-07-23T06:14:32.389Z,1004.3
2017-07-23T06:15:36.408Z,1004.3
2017-07-23T06:16:38.900Z,1004.3
2017-07-23T06:17:41.284Z,1004.3
2017-07-23T06:18:43.867Z,1004.3
2017-07-23T06:19:46.889Z,1004.3
2017-07-23T06:21:21.574Z,1004.3
2017-07-23T06:22:23.642Z,1004.3
2017-07-23T06:23:25.761Z,1004.2
2017-07-23T06:24:27.935Z,1004.2
2017-07-23T06:25:31.868Z,1004.1
2017-07-23T06:26:37.488Z,1004.2
2017-07-23T06:27:42.399Z,1004.1
2017-07-23T06:28:44.991Z,1004.1
2017-07-23T06:29:50.068Z,1004
2017-07-23T06:30:54.109Z,1004.1
2017-07-23T06:31:57.871Z,1004
2017-07-23T06:33:02.251Z,1004.1
2017-07-23T06:34:06.499Z,1004.1
2017-07-23T06:35:09.492Z,1004.1
2017-07-23T06:36:11.732Z,1004.1
2017-07-23T06:37:14.081Z,1004
2017-07-23T06:38:19.468Z,1004
2017-07-23T06:39:25.081Z,1004
2017-07-23T06:40:28.808Z,1004
2017-07-23T06:41:32.068Z,1004
2017-07-23T06:42:34.202Z,1003.9
2017-07-23T06:43:37.387Z,1004
2017-07-23T06:44:42.345Z,1003.9
2017-07-23T06:45:44.986Z,1003.9
2017-07-23T06:46:49.688Z,1003.9
2017-07-23T06:47:53.471Z,1003.9
2017-07-23T06:48:58.474Z,1003.9
2017-07-23T06:50:04.718Z,1003.8
2017-07-23T06:51:10.403Z,1003.9
2017-07-23T06:52:13.994Z,1003.9
2017-07-23T06:53:17.591Z,1004
2017-07-23T06:54:22.115Z,1004
2017-07-23T06:55:26.667Z,1004
2017-07-23T06:56:30.221Z,1004
2017-07-23T06:57:35.330Z,1004
2017-07-23T06:58:39.614Z,1004
2017-07-23T06:59:45.773Z,1004
2017-07-23T07:00:49.111Z,1004
2017-07-23T07:01:55.071Z,1004
2017-07-23T07:02:59.411Z,1004
2017-07-23T07:04:05.002Z,1003.9
2017-07-23T07:05:07.446Z,1003.9
2017-07-23T07:06:09.523Z,1003.9
2017-07-23T07:07:11.581Z,1003.9
2017-07-23T07:08:13.673Z,1003.9
2017-07-23T07:09:16.080Z,1003.9
2017-07-23T07:10:18.504Z,1004
2017-07-23T07:11:20.912Z,1004
2017-07-23T07:12:22.992Z,1004
2017-07-23T07:13:25.049Z,1004
2017-07-23T07:14:27.100Z,1004
2017-07-23T07:15:29.190Z,1004.1
2017-07-23T07:16:31.264Z,1004.1
2017-07-23T07:17:33.334Z,1004.1
2017-07-23T07:18:35.421Z,1004.1
2017-07-23T07:19:37.485Z,1004.1
2017-07-23T07:20:39.551Z,1004.1
2017-07-23T07:21:41.644Z,1004.1
2017-07-23T07:22:43.703Z,1004.1
2017-07-23T07:23:45.766Z,1004.1
2017-07-23T07:24:47.842Z,1004.2
2017-07-23T07:25:50.239Z,1004.1
2017-07-23T07:26:52.314Z,1004.1
2017-07-23T07:27:54.737Z,1004.2
2017-07-23T07:28:56.829Z,1004.2
2017-07-23T07:29:58.901Z,1004.2
2017-07-23T07:31:00.975Z,1004.1
2017-07-23T07:32:03.386Z,1004.2
2017-07-23T07:33:05.810Z,1004.1
2017-07-23T07:34:07.885Z,1004.1
2017-07-23T07:35:10.378Z,1004.1
2017-07-23T07:36:12.768Z,1004.1
2017-07-23T07:37:14.878Z,1004.1
2017-07-23T07:38:17.282Z,1004.1
2017-07-23T07:39:19.342Z,1004.1
2017-07-23T07:40:21.769Z,1004.1
2017-07-23T07:41:23.839Z,1004.2
2017-07-23T07:42:25.901Z,1004.2
2017-07-23T07:43:27.986Z,1004.2
2017-07-23T07:44:30.415Z,1004.1
2017-07-23T07:45:32.472Z,1004.1
2017-07-23T07:46:34.554Z,1004.1
2017-07-23T07:47:37.305Z,1004.1
2017-07-23T07:48:39.414Z,1004.1
2017-07-23T07:49:41.466Z,1004.2
2017-07-23T07:50:43.899Z,1004.1
2017-07-23T07:51:45.982Z,1004.1
2017-07-23T07:52:48.397Z,1004.1
2017-07-23T07:53:50.458Z,1004.1
2017-07-23T07:54:52.514Z,1004.1
2017-07-23T07:55:54.925Z,1004.2
2017-07-23T07:56:57.668Z,1004.2
2017-07-23T07:57:59.736Z,1004.2
2017-07-23T07:59:01.813Z,1004.3
2017-07-23T08:00:03.912Z,1004.3
2017-07-23T08:01:05.978Z,1004.3
2017-07-23T08:02:08.383Z,1004.3
2017-07-23T08:03:10.798Z,1004.4
2017-07-23T08:04:13.211Z,1004.4
2017-07-23T08:05:15.268Z,1004.4
2017-07-23T08:06:17.334Z,1004.4
2017-07-23T08:07:19.401Z,1004.4
2017-07-23T08:08:21.460Z,1004.4
2017-07-23T08:09:23.547Z,1004.4
2017-07-23T08:10:25.614Z,1004.5
2017-07-23T08:11:27.660Z,1004.4
2017-07-23T08:12:29.732Z,1004.5
2017-07-23T08:13:31.790Z,1004.4
2017-07-23T08:14:33.852Z,1004.4
2017-07-23T08:15:35.922Z,1004.4
2017-07-23T08:16:37.978Z,1004.4
2017-07-23T08:17:40.063Z,1004.4
2017-07-23T08:18:42.476Z,1004.3
2017-07-23T08:19:44.546Z,1004.4
2017-07-23T08:20:46.976Z,1004.4
2017-07-23T08:21:49.029Z,1004.4
2017-07-23T08:22:51.426Z,1004.4
2017-07-23T08:23:53.486Z,1004.4
2017-07-23T08:24:55.885Z,1004.4
2017-07-23T08:25:58.284Z,1004.4
2017-07-23T08:27:00.679Z,1004.4
2017-07-23T08:28:02.755Z,1004.4
2017-07-23T08:29:04.833Z,1004.4
2017-07-23T08:30:07.273Z,1004.3
2017-07-23T08:31:09.352Z,1004.4
2017-07-23T08:32:11.424Z,1004.3
2017-07-23T08:33:13.485Z,1004.3
2017-07-23T08:34:15.557Z,1004.3
2017-07-23T08:35:17.613Z,1004.3
2017-07-23T08:36:19.681Z,1004.3
2017-07-23T08:37:22.081Z,1004.3
2017-07-23T08:38:24.480Z,1004.4
2017-07-23T08:39:26.550Z,1004.3
2017-07-23T08:40:28.977Z,1004.3
2017-07-23T08:41:31.393Z,1004.3
2017-07-23T08:42:34.119Z,1004.3
2017-07-23T08:43:36.189Z,1004.3
2017-07-23T08:44:38.940Z,1004.3
2017-07-23T08:45:41.003Z,1004.2
2017-07-23T08:46:43.760Z,1004.2
2017-07-23T08:47:45.858Z,1004.2
2017-07-23T08:48:47.954Z,1004.2
2017-07-23T08:49:50.370Z,1004.2
2017-07-23T08:50:52.756Z,1004.2
2017-07-23T08:51:54.827Z,1004.2
2017-07-23T08:52:56.893Z,1004.2
2017-07-23T08:53:58.961Z,1004.3
2017-07-23T08:55:01.370Z,1004.3
2017-07-23T08:56:04.132Z,1004.3
2017-07-23T08:57:06.594Z,1004.3
2017-07-23T08:58:08.665Z,1004.3
2017-07-23T08:59:11.120Z,1004.3
2017-07-23T09:00:13.201Z,1004.3
2017-07-23T09:01:15.256Z,1004.4
2017-07-23T09:02:17.318Z,1004.4
2017-07-23T09:03:19.391Z,1004.4
2017-07-23T09:04:21.457Z,1004.4
2017-07-23T09:05:23.856Z,1004.4
2017-07-23T09:06:25.937Z,1004.4
2017-07-23T09:07:28.005Z,1004.4
2017-07-23T09:08:30.078Z,1004.4
2017-07-23T09:09:32.145Z,1004.4
2017-07-23T09:10:34.904Z,1004.4
2017-07-23T09:11:36.956Z,1004.4
2017-07-23T09:12:39.010Z,1004.3
2017-07-23T09:13:41.102Z,1004.4
2017-07-23T09:14:43.157Z,1004.4
2017-07-23T09:15:45.250Z,1004.3
2017-07-23T09:16:47.655Z,1004.4
2017-07-23T09:17:49.745Z,1004.4
2017-07-23T09:18:51.826Z,1004.5
2017-07-23T09:19:53.905Z,1004.4
2017-07-23T09:20:55.974Z,1004.4
2017-07-23T09:21:58.035Z,1004.4
2017-07-23T09:23:00.776Z,1004.5
2017-07-23T09:24:03.891Z,1004.5
2017-07-23T09:25:06.007Z,1004.5
2017-07-23T09:26:08.073Z,1004.5
2017-07-23T09:27:10.171Z,1004.5
2017-07-23T09:28:12.576Z,1004.5
2017-07-23T09:29:14.631Z,1004.5
2017-07-23T09:30:17.446Z,1004.5
2017-07-23T09:31:19.512Z,1004.5
2017-07-23T09:32:21.622Z,1004.5
2017-07-23T09:33:23.680Z,1004.6
2017-07-23T09:34:25.755Z,1004.6
2017-07-23T09:35:27.807Z,1004.6
2017-07-23T09:36:29.948Z,1004.5
2017-07-23T09:37:32.701Z,1004.5
2017-07-23T09:38:35.112Z,1004.5
2017-07-23T09:39:37.175Z,1004.5
2017-07-23T09:40:39.254Z,1004.5
2017-07-23T09:41:41.427Z,1004.5
2017-07-23T09:42:43.500Z,1004.5
2017-07-23T09:43:45.563Z,1004.5
2017-07-23T09:44:47.661Z,1004.5
2017-07-23T09:45:50.078Z,1004.5
2017-07-23T09:46:52.147Z,1004.5
2017-07-23T09:47:54.240Z,1004.5
2017-07-23T09:48:56.307Z,1004.5
2017-07-23T09:49:58.708Z,1004.4
2017-07-23T09:51:00.783Z,1004.5
2017-07-23T09:52:02.851Z,1004.4
2017-07-23T09:53:05.257Z,1004.4
2017-07-23T09:54:07.657Z,1004.4
2017-07-23T09:55:10.064Z,1004.4
2017-07-23T09:56:12.208Z,1004.5
2017-07-23T09:57:14.276Z,1004.4
2017-07-23T09:58:16.366Z,1004.5
2017-07-23T09:59:18.428Z,1004.5
2017-07-23T10:00:20.498Z,1004.5
2017-07-23T10:01:22.553Z,1004.4
2017-07-23T10:02:26.016Z,1004.4
2017-07-23T10:03:28.131Z,1004.5
2017-07-23T10:04:30.308Z,1004.4
2017-07-23T10:05:33.046Z,1004.4
2017-07-23T10:06:35.119Z,1004.4
2017-07-23T10:07:37.523Z,1004.4
2017-07-23T10:08:39.588Z,1004.3
2017-07-23T10:09:41.981Z,1004.3
2017-07-23T10:10:44.046Z,1004.4
2017-07-23T10:11:46.106Z,1004.3
2017-07-23T10:12:48.173Z,1004.3
2017-07-23T10:13:50.595Z,1004.3
2017-07-23T10:14:52.662Z,1004.3
2017-07-23T10:15:54.716Z,1004.3
2017-07-23T10:16:56.775Z,1004.3
2017-07-23T10:17:58.847Z,1004.3
2017-07-23T10:19:00.922Z,1004.3
2017-07-23T10:20:03.686Z,1004.3
2017-07-23T10:21:05.752Z,1004.3
2017-07-23T10:22:08.184Z,1004.3
2017-07-23T10:23:10.943Z,1004.3
2017-07-23T10:24:12.994Z,1004.4
2017-07-23T10:25:15.064Z,1004.4
2017-07-23T10:26:17.480Z,1004.4
2017-07-23T10:27:19.554Z,1004.4
2017-07-23T10:28:21.962Z,1004.3
2017-07-23T10:29:24.390Z,1004.3
2017-07-23T10:30:26.453Z,1004.4
2017-07-23T10:31:28.888Z,1004.3
2017-07-23T10:32:30.956Z,1004.3
2017-07-23T10:33:33.023Z,1004.3
2017-07-23T10:34:35.089Z,1004.3
2017-07-23T10:35:37.163Z,1004.4
2017-07-23T10:36:39.584Z,1004.3
2017-07-23T10:37:41.648Z,1004.4
2017-07-23T10:38:43.702Z,1004.3
2017-07-23T10:39:46.128Z,1004.3
2017-07-23T10:40:48.181Z,1004.3
2017-07-23T10:41:50.268Z,1004.4
2017-07-23T10:42:52.343Z,1004.4
2017-07-23T10:43:54.743Z,1004.3
2017-07-23T10:44:56.811Z,1004.4
2017-07-23T10:45:58.868Z,1004.3
2017-07-23T10:47:00.940Z,1004.3
2017-07-23T10:48:03.008Z,1004.3
2017-07-23T10:49:05.080Z,1004.3
2017-07-23T10:50:07.168Z,1004.3
2017-07-23T10:51:09.579Z,1004.3
2017-07-23T10:52:11.652Z,1004.3
2017-07-23T10:53:14.058Z,1004.3
2017-07-23T10:54:16.134Z,1004.3
2017-07-23T10:55:18.201Z,1004.2
2017-07-23T10:56:20.277Z,1004.2
2017-07-23T10:57:22.339Z,1004.2
2017-07-23T10:58:24.410Z,1004.2
2017-07-23T10:59:26.804Z,1004.2
2017-07-23T11:00:29.555Z,1004.1
2017-07-23T11:01:31.626Z,1004.1
2017-07-23T11:02:34.028Z,1004.2
2017-07-23T11:03:36.106Z,1004.2
2017-07-23T11:04:38.510Z,1004.2
2017-07-23T11:05:40.920Z,1004.3
2017-07-23T11:06:43.328Z,1004.2
2017-07-23T11:07:45.399Z,1004.2
2017-07-23T11:08:47.472Z,1004.3
2017-07-23T11:09:49.544Z,1004.3
2017-07-23T11:10:51.624Z,1004.3
2017-07-23T11:11:53.701Z,1004.3
2017-07-23T11:12:55.776Z,1004.3
2017-07-23T11:13:57.854Z,1004.3
2017-07-23T11:15:00.247Z,1004.3
2017-07-23T11:16:02.328Z,1004.2
2017-07-23T11:17:04.389Z,1004.3
2017-07-23T11:18:06.465Z,1004.2
2017-07-23T11:19:08.532Z,1004.2
2017-07-23T11:20:10.592Z,1004.2
2017-07-23T11:21:12.654Z,1004.2
2017-07-23T11:22:14.728Z,1004.2
2017-07-23T11:23:17.126Z,1004.2
2017-07-23T11:24:19.547Z,1004.2
2017-07-23T11:25:21.951Z,1004.2
2017-07-23T11:26:24.022Z,1004.2
2017-07-23T11:27:26.099Z,1004.2
2017-07-23T11:28:28.185Z,1004.2
2017-07-23T11:29:30.960Z,1004.2
2017-07-23T11:30:33.046Z,1004.3
2017-07-23T11:31:35.517Z,1004.2
2017-07-23T11:32:37.972Z,1004.2
2017-07-23T11:33:40.091Z,1004.2
2017-07-23T11:34:42.179Z,1004.2
2017-07-23T11:35:44.298Z,1004.2
2017-07-23T11:36:46.683Z,1004.2
2017-07-23T11:37:48.784Z,1004.3
2017-07-23T11:38:51.200Z,1004.3
2017-07-23T11:39:53.272Z,1004.3
2017-07-23T11:40:55.732Z,1004.3
2017-07-23T11:41:57.884Z,1004.4
2017-07-23T11:43:00.985Z,1004.4
2017-07-23T11:44:03.400Z,1004.4
2017-07-23T11:45:05.866Z,1004.5
2017-07-23T11:46:08.296Z,1004.4
2017-07-23T11:47:10.393Z,1004.5
2017-07-23T11:48:13.182Z,1004.4
2017-07-23T11:49:15.254Z,1004.4
2017-07-23T11:50:17.480Z,1004.5
2017-07-23T11:51:19.905Z,1004.5
2017-07-23T11:52:21.966Z,1004.5
2017-07-23T11:53:24.036Z,1004.5
2017-07-23T11:54:26.104Z,1004.5
2017-07-23T11:55:28.181Z,1004.5
2017-07-23T11:56:30.250Z,1004.5
2017-07-23T11:57:32.324Z,1004.5
2017-07-23T11:58:34.748Z,1004.5
2017-07-23T11:59:37.153Z,1004.6
2017-07-23T12:00:39.217Z,1004.6
2017-07-23T12:01:41.624Z,1004.7
2017-07-23T12:02:44.042Z,1004.6
2017-07-23T12:03:46.446Z,1004.6
2017-07-23T12:04:48.508Z,1004.7
2017-07-23T12:05:50.921Z,1004.6
2017-07-23T12:06:52.988Z,1004.6
2017-07-23T12:07:55.058Z,1004.6
2017-07-23T12:08:57.116Z,1004.6
2017-07-23T12:09:59.522Z,1004.6
2017-07-23T12:11:02.298Z,1004.6
2017-07-23T12:12:05.391Z,1004.6
2017-07-23T12:13:07.468Z,1004.6
2017-07-23T12:14:09.534Z,1004.6
2017-07-23T12:15:11.602Z,1004.6
2017-07-23T12:16:14.014Z,1004.7
2017-07-23T12:17:16.077Z,1004.7
2017-07-23T12:18:18.836Z,1004.7
2017-07-23T12:19:20.903Z,1004.7
2017-07-23T12:20:22.951Z,1004.8
2017-07-23T12:21:25.024Z,1004.7
2017-07-23T12:22:27.084Z,1004.7
2017-07-23T12:23:29.172Z,1004.7
2017-07-23T12:24:31.575Z,1004.7
2017-07-23T12:25:33.638Z,1004.7
2017-07-23T12:26:35.713Z,1004.8
2017-07-23T12:27:37.785Z,1004.8
2017-07-23T12:28:39.850Z,1004.7
2017-07-23T12:29:42.240Z,1004.8
2017-07-23T12:30:44.314Z,1004.8
2017-07-23T12:31:46.391Z,1004.8
2017-07-23T12:32:48.454Z,1004.8
2017-07-23T12:33:50.519Z,1004.9
2017-07-23T12:34:52.612Z,1004.9
2017-07-23T12:35:54.692Z,1004.8
2017-07-23T12:36:57.105Z,1004.9
2017-07-23T12:37:59.189Z,1005
2017-07-23T12:39:01.965Z,1004.9
2017-07-23T12:40:04.044Z,1004.9
2017-07-23T12:41:06.112Z,1005
2017-07-23T12:42:08.180Z,1005
2017-07-23T12:43:10.231Z,1005
2017-07-23T12:44:12.292Z,1005
2017-07-23T12:45:14.350Z,1005
2017-07-23T12:46:16.446Z,1004.9
2017-07-23T12:47:18.511Z,1004.9
2017-07-23T12:48:20.571Z,1004.9
2017-07-23T12:49:22.986Z,1005
2017-07-23T12:50:25.050Z,1005
2017-07-23T12:51:27.128Z,1004.9
2017-07-23T12:52:29.180Z,1005
2017-07-23T12:53:31.591Z,1005
2017-07-23T12:54:34.008Z,1004.9
2017-07-23T12:55:36.073Z,1005
2017-07-23T12:56:38.143Z,1005
2017-07-23T12:57:40.538Z,1005
2017-07-23T12:58:42.628Z,1005
2017-07-23T12:59:44.695Z,1005.1
2017-07-23T13:00:47.440Z,1005.1
2017-07-23T13:01:49.838Z,1005.1
2017-07-23T13:02:52.278Z,1005.1
2017-07-23T13:03:54.351Z,1005
2017-07-23T13:04:56.763Z,1005